Bernice Lind — WDC8364 — position and weather

sailwx.info

Track history (hours):
 
Tides and Currents Weather Stations Pressure Air Temp Water Temp Dewpoint Dewpoint Depression Visibility Wind Speed Wind Dir Waves Ship Positions

Bernice Lind

Owner: Riverview Equipment Company, LLC, Petaluma, CA. More information available from US FCC via Universal Licensing System and Coast Guard Vessel Documentation Center.

Last reported at 2015-Mar-27 14:10 UTC. Time now 2015-Mar-31 12:41 UTC.
Position N 38°14' W 122°36'.

Length 18 m; draft 1.8 m.

Type: Towing. MMSI: 367085890.

Date/timePositionNaut miles runAvg speedWind from/ knotsBaromVisibWave heightAir tempDewpointWater temp
2015-Mar-27 14:10N 38°14' W 122°36'1 0.1
2015-Mar-26 14:05N 38°14' W 122°38'1 0.0
2015-Mar-24 14:24N 38°14' W 122°36'0 0.0
2015-Mar-24 13:33N 38°14' W 122°36'0 0.0
2015-Mar-24 12:33N 38°14' W 122°36'0 0.0
2015-Mar-24 11:24N 38°14' W 122°36'2 2.4
2015-Mar-24 10:33N 38°12' W 122°34'4 3.8
2015-Mar-24 09:33N 38°09' W 122°32'7 4.8
2015-Mar-24 08:09N 38°04' W 122°26'3 4.1
2015-Mar-24 07:32N 38°02' W 122°24'5 5.0
2015-Mar-24 06:32N 38°04' W 122°17'7 6.9
2015-Mar-24 05:32N 38°02' W 122°09'3 0.2
2015-Mar-23 16:23N 38°04' W 122°13'3 3.4
2015-Mar-23 15:33N 38°04' W 122°16'4 4.0
2015-Mar-23 14:29N 38°03' W 122°21'5 4.8
2015-Mar-23 13:32N 38°05' W 122°26'6 6.4
2015-Mar-23 12:33N 38°09' W 122°32'4 3.6
2015-Mar-23 11:33N 38°12' W 122°35'2 1.8
2015-Mar-23 10:33N 38°14' W 122°36'0 0.0
2015-Mar-21 22:24N 38°14' W 122°36'1 1.1
2015-Mar-21 21:33N 38°13' W 122°35'2 2.2
2015-Mar-21 20:33N 38°12' W 122°33'4 3.6
2015-Mar-21 19:32N 38°09' W 122°31'8 3.9
2015-Mar-21 17:33N 38°02' W 122°25'0 0.1
2015-Mar-21 16:33N 38°02' W 122°25'1 1.0
2015-Mar-21 15:28N 38°01' W 122°25'7 6.8
2015-Mar-21 14:25N 38°04' W 122°16'13 1.1
2015-Mar-21 02:33N 38°04' W 121°59'4 3.1
2015-Mar-21 01:22N 38°04' W 122°04'4 4.5
2015-Mar-21 00:33N 38°02' W 122°08'5 4.5
2015-Mar-20 23:33N 38°04' W 122°13'6 5.8
2015-Mar-20 22:33N 38°09' W 122°17'4 4.3
2015-Mar-20 21:33N 38°13' W 122°19'1 0.1
2015-Mar-19 18:33N 38°14' W 122°17'3 3.1
2015-Mar-19 17:33N 38°11' W 122°19'4 3.9
2015-Mar-19 16:33N 38°08' W 122°17'4 4.5
2015-Mar-19 15:33N 38°04' W 122°14'6 5.7
2015-Mar-19 14:28N 38°03' W 122°06'5 6.0
2015-Mar-19 13:33N 38°04' W 121°59'8 0.5
2015-Mar-18 22:33N 38°02' W 122°09'5 5.0
2015-Mar-18 21:33N 38°04' W 122°15'6 6.2
2015-Mar-18 20:33N 38°10' W 122°18'4 4.1
2015-Mar-18 19:33N 38°14' W 122°18'0 0.0
2015-Mar-17 16:34N 38°14' W 122°18'3 3.1
2015-Mar-17 15:33N 38°11' W 122°18'5 4.0
2015-Mar-17 14:18N 38°06' W 122°16'  
Track history (hours):
 
Tides and Currents Weather Stations Pressure Air Temp Water Temp Dewpoint Dewpoint Depression Visibility Wind Speed Wind Dir Waves Ship Positions

Bernice Lind

Owner: Riverview Equipment Company, LLC, Petaluma, CA. More information available from US FCC via Universal Licensing System and Coast Guard Vessel Documentation Center.

Last reported at 2015-Mar-27 14:10 UTC. Time now 2015-Mar-31 12:41 UTC.
Position N 38°14' W 122°36'.

Length 18 m; draft 1.8 m.

Type: Towing. MMSI: 367085890.

Date/timePositionNaut miles runAvg speedWind from/ knotsBaromVisibWave heightAir tempDewpointWater temp
2015-Mar-27 14:10N 38°14' W 122°36'1 0.1
2015-Mar-26 14:05N 38°14' W 122°38'1 0.0
2015-Mar-24 14:24N 38°14' W 122°36'0 0.0
2015-Mar-24 13:33N 38°14' W 122°36'0 0.0
2015-Mar-24 12:33N 38°14' W 122°36'0 0.0
2015-Mar-24 11:24N 38°14' W 122°36'2 2.4
2015-Mar-24 10:33N 38°12' W 122°34'4 3.8
2015-Mar-24 09:33N 38°09' W 122°32'7 4.8
2015-Mar-24 08:09N 38°04' W 122°26'3 4.1
2015-Mar-24 07:32N 38°02' W 122°24'5 5.0
2015-Mar-24 06:32N 38°04' W 122°17'7 6.9
2015-Mar-24 05:32N 38°02' W 122°09'3 0.2
2015-Mar-23 16:23N 38°04' W 122°13'3 3.4
2015-Mar-23 15:33N 38°04' W 122°16'4 4.0
2015-Mar-23 14:29N 38°03' W 122°21'5 4.8
2015-Mar-23 13:32N 38°05' W 122°26'6 6.4
2015-Mar-23 12:33N 38°09' W 122°32'4 3.6
2015-Mar-23 11:33N 38°12' W 122°35'2 1.8
2015-Mar-23 10:33N 38°14' W 122°36'0 0.0
2015-Mar-21 22:24N 38°14' W 122°36'1 1.1
2015-Mar-21 21:33N 38°13' W 122°35'2 2.2
2015-Mar-21 20:33N 38°12' W 122°33'4 3.6
2015-Mar-21 19:32N 38°09' W 122°31'8 3.9
2015-Mar-21 17:33N 38°02' W 122°25'0 0.1
2015-Mar-21 16:33N 38°02' W 122°25'1 1.0
2015-Mar-21 15:28N 38°01' W 122°25'7 6.8
2015-Mar-21 14:25N 38°04' W 122°16'13 1.1
2015-Mar-21 02:33N 38°04' W 121°59'4 3.1
2015-Mar-21 01:22N 38°04' W 122°04'4 4.5
2015-Mar-21 00:33N 38°02' W 122°08'5 4.5
2015-Mar-20 23:33N 38°04' W 122°13'6 5.8
2015-Mar-20 22:33N 38°09' W 122°17'4 4.3
2015-Mar-20 21:33N 38°13' W 122°19'1 0.1
2015-Mar-19 18:33N 38°14' W 122°17'3 3.1
2015-Mar-19 17:33N 38°11' W 122°19'4 3.9
2015-Mar-19 16:33N 38°08' W 122°17'4 4.5
2015-Mar-19 15:33N 38°04' W 122°14'6 5.7
2015-Mar-19 14:28N 38°03' W 122°06'5 6.0
2015-Mar-19 13:33N 38°04' W 121°59'8 0.5
2015-Mar-18 22:33N 38°02' W 122°09'5 5.0
2015-Mar-18 21:33N 38°04' W 122°15'6 6.2
2015-Mar-18 20:33N 38°10' W 122°18'4 4.1
2015-Mar-18 19:33N 38°14' W 122°18'0 0.0
2015-Mar-17 16:34N 38°14' W 122°18'3 3.1
2015-Mar-17 15:33N 38°11' W 122°18'5 4.0
2015-Mar-17 14:18N 38°06' W 122°16'  

Dump ship's entire track history